sensor_id;sensor_type;location;lat;lon;timestamp;P1;durP1;ratioP1;P2;durP2;ratioP2
36671;SDS011;22663;47.412;9.742;2022-09-21T00:01:07;2.22;;;0.93;;
36671;SDS011;22663;47.412;9.742;2022-09-21T00:03:34;1.60;;;0.90;;
36671;SDS011;22663;47.412;9.742;2022-09-21T00:06:19;1.00;;;0.73;;
36671;SDS011;22663;47.412;9.742;2022-09-21T00:08:45;1.70;;;1.05;;
36671;SDS011;22663;47.412;9.742;2022-09-21T00:11:12;2.35;;;1.02;;
36671;SDS011;22663;47.412;9.742;2022-09-21T00:13:39;1.65;;;1.00;;
36671;SDS011;22663;47.412;9.742;2022-09-21T00:16:07;2.00;;;0.77;;
36671;SDS011;22663;47.412;9.742;2022-09-21T00:18:34;1.85;;;0.95;;
36671;SDS011;22663;47.412;9.742;2022-09-21T00:21:00;3.05;;;1.05;;
36671;SDS011;22663;47.412;9.742;2022-09-21T00:23:27;11.30;;;1.58;;
36671;SDS011;22663;47.412;9.742;2022-09-21T00:26:02;2.50;;;1.23;;
36671;SDS011;22663;47.412;9.742;2022-09-21T00:28:29;5.63;;;1.13;;
36671;SDS011;22663;47.412;9.742;2022-09-21T00:30:55;1.45;;;0.90;;
36671;SDS011;22663;47.412;9.742;2022-09-21T00:33:26;2.58;;;1.02;;
36671;SDS011;22663;47.412;9.742;2022-09-21T00:35:52;2.63;;;1.10;;
36671;SDS011;22663;47.412;9.742;2022-09-21T00:38:18;2.10;;;1.02;;
36671;SDS011;22663;47.412;9.742;2022-09-21T00:40:44;3.25;;;1.05;;
36671;SDS011;22663;47.412;9.742;2022-09-21T00:43:14;2.63;;;0.90;;
36671;SDS011;22663;47.412;9.742;2022-09-21T00:45:40;3.35;;;1.10;;
36671;SDS011;22663;47.412;9.742;2022-09-21T00:48:06;1.95;;;0.80;;
36671;SDS011;22663;47.412;9.742;2022-09-21T00:50:33;1.15;;;0.70;;
36671;SDS011;22663;47.412;9.742;2022-09-21T00:53:00;0.73;;;0.60;;
36671;SDS011;22663;47.412;9.742;2022-09-21T00:55:42;1.90;;;1.00;;
36671;SDS011;22663;47.412;9.742;2022-09-21T00:58:11;1.15;;;0.80;;
36671;SDS011;22663;47.412;9.742;2022-09-21T01:00:39;3.72;;;0.90;;
36671;SDS011;22663;47.412;9.742;2022-09-21T01:03:05;9.05;;;1.85;;
36671;SDS011;22663;47.412;9.742;2022-09-21T01:05:32;1.70;;;1.08;;
36671;SDS011;22663;47.412;9.742;2022-09-21T01:07:59;2.60;;;1.13;;
36671;SDS011;22663;47.412;9.742;2022-09-21T01:10:26;3.25;;;0.90;;
36671;SDS011;22663;47.412;9.742;2022-09-21T01:20:24;2.50;;;1.02;;
36671;SDS011;22663;47.412;9.742;2022-09-21T01:28:24;1.98;;;1.30;;
36671;SDS011;22663;47.412;9.742;2022-09-21T01:30:54;2.97;;;1.00;;
36671;SDS011;22663;47.412;9.742;2022-09-21T01:35:51;1.33;;;1.10;;
36671;SDS011;22663;47.412;9.742;2022-09-21T01:38:26;2.47;;;1.20;;
36671;SDS011;22663;47.412;9.742;2022-09-21T01:40:57;1.95;;;1.00;;
36671;SDS011;22663;47.412;9.742;2022-09-21T01:43:31;1.58;;;1.00;;
36671;SDS011;22663;47.412;9.742;2022-09-21T01:45:59;2.10;;;1.20;;
36671;SDS011;22663;47.412;9.742;2022-09-21T01:48:26;2.75;;;1.40;;
36671;SDS011;22663;47.412;9.742;2022-09-21T01:50:55;2.88;;;1.02;;
36671;SDS011;22663;47.412;9.742;2022-09-21T01:53:32;2.08;;;1.00;;
36671;SDS011;22663;47.412;9.742;2022-09-21T01:56:21;1.88;;;1.00;;
36671;SDS011;22663;47.412;9.742;2022-09-21T01:58:51;2.33;;;1.15;;
36671;SDS011;22663;47.412;9.742;2022-09-21T02:01:20;3.40;;;1.10;;
36671;SDS011;22663;47.412;9.742;2022-09-21T02:03:51;1.15;;;0.90;;
36671;SDS011;22663;47.412;9.742;2022-09-21T02:06:18;3.47;;;0.98;;
36671;SDS011;22663;47.412;9.742;2022-09-21T02:08:44;2.17;;;0.90;;
36671;SDS011;22663;47.412;9.742;2022-09-21T02:11:12;1.45;;;1.00;;
36671;SDS011;22663;47.412;9.742;2022-09-21T02:13:39;1.63;;;0.88;;
36671;SDS011;22663;47.412;9.742;2022-09-21T02:21:06;1.00;;;0.70;;
36671;SDS011;22663;47.412;9.742;2022-09-21T02:23:46;1.52;;;1.00;;
36671;SDS011;22663;47.412;9.742;2022-09-21T02:26:17;4.10;;;0.88;;
36671;SDS011;22663;47.412;9.742;2022-09-21T02:28:46;1.38;;;0.60;;
36671;SDS011;22663;47.412;9.742;2022-09-21T02:33:56;1.42;;;0.70;;
36671;SDS011;22663;47.412;9.742;2022-09-21T02:36:29;4.10;;;0.90;;
36671;SDS011;22663;47.412;9.742;2022-09-21T02:39:01;2.28;;;0.73;;
36671;SDS011;22663;47.412;9.742;2022-09-21T02:46:25;1.70;;;0.80;;
36671;SDS011;22663;47.412;9.742;2022-09-21T02:48:54;1.30;;;0.73;;
36671;SDS011;22663;47.412;9.742;2022-09-21T02:51:27;2.33;;;0.85;;
36671;SDS011;22663;47.412;9.742;2022-09-21T02:53:55;1.83;;;1.08;;
36671;SDS011;22663;47.412;9.742;2022-09-21T02:56:21;2.33;;;0.70;;
36671;SDS011;22663;47.412;9.742;2022-09-21T02:58:49;2.10;;;0.98;;
36671;SDS011;22663;47.412;9.742;2022-09-21T03:01:18;1.92;;;1.05;;
36671;SDS011;22663;47.412;9.742;2022-09-21T03:03:44;1.45;;;0.70;;
36671;SDS011;22663;47.412;9.742;2022-09-21T03:06:10;1.10;;;0.70;;
36671;SDS011;22663;47.412;9.742;2022-09-21T03:08:37;1.70;;;0.80;;
36671;SDS011;22663;47.412;9.742;2022-09-21T03:11:03;3.83;;;1.17;;
36671;SDS011;22663;47.412;9.742;2022-09-21T03:13:29;1.55;;;0.80;;
36671;SDS011;22663;47.412;9.742;2022-09-21T03:16:02;3.90;;;1.08;;
36671;SDS011;22663;47.412;9.742;2022-09-21T03:18:29;1.30;;;0.77;;
36671;SDS011;22663;47.412;9.742;2022-09-21T03:20:55;2.08;;;0.95;;
36671;SDS011;22663;47.412;9.742;2022-09-21T03:23:21;2.95;;;1.10;;
36671;SDS011;22663;47.412;9.742;2022-09-21T03:25:47;1.45;;;0.77;;
36671;SDS011;22663;47.412;9.742;2022-09-21T03:28:13;1.58;;;0.80;;
36671;SDS011;22663;47.412;9.742;2022-09-21T03:30:40;2.60;;;1.00;;
36671;SDS011;22663;47.412;9.742;2022-09-21T03:33:06;0.90;;;0.70;;
36671;SDS011;22663;47.412;9.742;2022-09-21T03:35:32;1.67;;;0.88;;
36671;SDS011;22663;47.412;9.742;2022-09-21T03:37:59;1.20;;;0.77;;
36671;SDS011;22663;47.412;9.742;2022-09-21T03:40:25;2.28;;;0.98;;
36671;SDS011;22663;47.412;9.742;2022-09-21T03:42:52;1.50;;;0.82;;
36671;SDS011;22663;47.412;9.742;2022-09-21T03:45:18;1.52;;;0.90;;
36671;SDS011;22663;47.412;9.742;2022-09-21T03:47:49;1.10;;;0.75;;
36671;SDS011;22663;47.412;9.742;2022-09-21T03:50:15;2.63;;;0.80;;
36671;SDS011;22663;47.412;9.742;2022-09-21T03:52:41;1.63;;;0.80;;
36671;SDS011;22663;47.412;9.742;2022-09-21T03:55:07;3.50;;;1.00;;
36671;SDS011;22663;47.412;9.742;2022-09-21T03:57:34;1.38;;;0.85;;
36671;SDS011;22663;47.412;9.742;2022-09-21T04:00:02;1.27;;;0.80;;
36671;SDS011;22663;47.412;9.742;2022-09-21T04:02:28;1.60;;;0.80;;
36671;SDS011;22663;47.412;9.742;2022-09-21T04:04:56;3.92;;;0.90;;
36671;SDS011;22663;47.412;9.742;2022-09-21T04:07:22;1.25;;;0.90;;
36671;SDS011;22663;47.412;9.742;2022-09-21T04:09:48;3.20;;;0.85;;
36671;SDS011;22663;47.412;9.742;2022-09-21T04:12:14;1.10;;;0.70;;
36671;SDS011;22663;47.412;9.742;2022-09-21T04:14:40;2.75;;;0.90;;
36671;SDS011;22663;47.412;9.742;2022-09-21T04:17:06;1.42;;;1.00;;
36671;SDS011;22663;47.412;9.742;2022-09-21T04:19:32;1.25;;;0.90;;
36671;SDS011;22663;47.412;9.742;2022-09-21T04:21:58;2.15;;;1.27;;
36671;SDS011;22663;47.412;9.742;2022-09-21T04:24:24;2.38;;;0.90;;
36671;SDS011;22663;47.412;9.742;2022-09-21T04:26:51;1.42;;;0.88;;
36671;SDS011;22663;47.412;9.742;2022-09-21T04:29:17;1.33;;;0.80;;
36671;SDS011;22663;47.412;9.742;2022-09-21T04:31:43;1.40;;;0.90;;
36671;SDS011;22663;47.412;9.742;2022-09-21T04:34:11;2.72;;;0.80;;
36671;SDS011;22663;47.412;9.742;2022-09-21T04:36:37;1.20;;;0.68;;
36671;SDS011;22663;47.412;9.742;2022-09-21T04:39:04;1.88;;;0.93;;
36671;SDS011;22663;47.412;9.742;2022-09-21T04:41:30;1.25;;;0.75;;
36671;SDS011;22663;47.412;9.742;2022-09-21T04:43:56;2.20;;;0.88;;
36671;SDS011;22663;47.412;9.742;2022-09-21T04:46:23;2.28;;;1.10;;
36671;SDS011;22663;47.412;9.742;2022-09-21T04:48:49;1.10;;;0.90;;
36671;SDS011;22663;47.412;9.742;2022-09-21T04:51:15;2.83;;;1.00;;
36671;SDS011;22663;47.412;9.742;2022-09-21T04:53:42;2.35;;;0.80;;
36671;SDS011;22663;47.412;9.742;2022-09-21T04:56:09;4.47;;;1.02;;
36671;SDS011;22663;47.412;9.742;2022-09-21T04:58:35;1.90;;;0.90;;
36671;SDS011;22663;47.412;9.742;2022-09-21T05:01:01;4.10;;;0.98;;
36671;SDS011;22663;47.412;9.742;2022-09-21T05:03:28;2.22;;;1.08;;
36671;SDS011;22663;47.412;9.742;2022-09-21T05:05:55;1.63;;;1.00;;
36671;SDS011;22663;47.412;9.742;2022-09-21T05:08:22;1.45;;;0.88;;
36671;SDS011;22663;47.412;9.742;2022-09-21T05:11:08;1.08;;;0.98;;
36671;SDS011;22663;47.412;9.742;2022-09-21T05:13:36;1.27;;;0.90;;
36671;SDS011;22663;47.412;9.742;2022-09-21T05:16:02;1.92;;;1.17;;
36671;SDS011;22663;47.412;9.742;2022-09-21T05:18:28;1.30;;;0.90;;
36671;SDS011;22663;47.412;9.742;2022-09-21T05:20:55;2.63;;;0.98;;
36671;SDS011;22663;47.412;9.742;2022-09-21T05:23:21;1.50;;;0.85;;
36671;SDS011;22663;47.412;9.742;2022-09-21T05:25:48;3.00;;;0.90;;
36671;SDS011;22663;47.412;9.742;2022-09-21T05:28:15;1.70;;;0.90;;
36671;SDS011;22663;47.412;9.742;2022-09-21T05:30:42;2.65;;;1.10;;
36671;SDS011;22663;47.412;9.742;2022-09-21T05:33:09;2.67;;;0.82;;
36671;SDS011;22663;47.412;9.742;2022-09-21T05:35:44;1.17;;;0.90;;
36671;SDS011;22663;47.412;9.742;2022-09-21T05:38:16;1.85;;;1.20;;
36671;SDS011;22663;47.412;9.742;2022-09-21T05:40:43;2.05;;;1.17;;
36671;SDS011;22663;47.412;9.742;2022-09-21T05:43:11;1.70;;;1.08;;
36671;SDS011;22663;47.412;9.742;2022-09-21T05:45:38;1.63;;;1.00;;
36671;SDS011;22663;47.412;9.742;2022-09-21T05:48:07;3.75;;;1.20;;
36671;SDS011;22663;47.412;9.742;2022-09-21T06:00:23;2.92;;;1.10;;
36671;SDS011;22663;47.412;9.742;2022-09-21T06:05:19;1.77;;;1.23;;
36671;SDS011;22663;47.412;9.742;2022-09-21T06:07:45;2.05;;;1.33;;
36671;SDS011;22663;47.412;9.742;2022-09-21T06:10:11;5.47;;;1.20;;
36671;SDS011;22663;47.412;9.742;2022-09-21T06:12:38;2.35;;;1.20;;
36671;SDS011;22663;47.412;9.742;2022-09-21T06:15:05;1.25;;;1.00;;
36671;SDS011;22663;47.412;9.742;2022-09-21T06:17:31;3.60;;;1.30;;
36671;SDS011;22663;47.412;9.742;2022-09-21T06:19:58;1.90;;;1.20;;
36671;SDS011;22663;47.412;9.742;2022-09-21T06:22:24;1.70;;;1.27;;
36671;SDS011;22663;47.412;9.742;2022-09-21T06:24:50;2.15;;;1.10;;
36671;SDS011;22663;47.412;9.742;2022-09-21T06:27:16;2.55;;;1.40;;
36671;SDS011;22663;47.412;9.742;2022-09-21T06:29:42;1.90;;;1.08;;
36671;SDS011;22663;47.412;9.742;2022-09-21T06:32:08;2.47;;;1.00;;
36671;SDS011;22663;47.412;9.742;2022-09-21T06:34:34;1.00;;;0.80;;
36671;SDS011;22663;47.412;9.742;2022-09-21T06:37:02;2.35;;;1.02;;
36671;SDS011;22663;47.412;9.742;2022-09-21T06:39:28;1.63;;;0.80;;
36671;SDS011;22663;47.412;9.742;2022-09-21T06:41:54;3.72;;;1.08;;
36671;SDS011;22663;47.412;9.742;2022-09-21T06:44:23;1.83;;;0.90;;
36671;SDS011;22663;47.412;9.742;2022-09-21T06:46:49;2.85;;;0.90;;
36671;SDS011;22663;47.412;9.742;2022-09-21T06:49:16;2.55;;;0.80;;
36671;SDS011;22663;47.412;9.742;2022-09-21T06:51:42;1.10;;;0.77;;
36671;SDS011;22663;47.412;9.742;2022-09-21T06:54:08;1.27;;;0.88;;
36671;SDS011;22663;47.412;9.742;2022-09-21T06:56:35;1.15;;;0.73;;
36671;SDS011;22663;47.412;9.742;2022-09-21T06:59:01;1.65;;;0.70;;
36671;SDS011;22663;47.412;9.742;2022-09-21T07:01:27;4.20;;;0.90;;
36671;SDS011;22663;47.412;9.742;2022-09-21T07:03:53;2.67;;;1.00;;
36671;SDS011;22663;47.412;9.742;2022-09-21T07:06:20;1.85;;;0.73;;
36671;SDS011;22663;47.412;9.742;2022-09-21T07:08:46;1.73;;;0.80;;
36671;SDS011;22663;47.412;9.742;2022-09-21T07:11:13;2.00;;;0.70;;
36671;SDS011;22663;47.412;9.742;2022-09-21T07:13:39;1.98;;;0.77;;
36671;SDS011;22663;47.412;9.742;2022-09-21T07:16:07;2.33;;;0.90;;
36671;SDS011;22663;47.412;9.742;2022-09-21T07:18:34;3.42;;;1.10;;
36671;SDS011;22663;47.412;9.742;2022-09-21T07:21:04;2.58;;;0.90;;
36671;SDS011;22663;47.412;9.742;2022-09-21T07:23:30;2.67;;;1.25;;
36671;SDS011;22663;47.412;9.742;2022-09-21T07:26:00;2.20;;;1.25;;
36671;SDS011;22663;47.412;9.742;2022-09-21T07:28:26;2.38;;;1.45;;
36671;SDS011;22663;47.412;9.742;2022-09-21T07:30:52;1.98;;;1.20;;
36671;SDS011;22663;47.412;9.742;2022-09-21T07:33:18;1.42;;;0.95;;
36671;SDS011;22663;47.412;9.742;2022-09-21T07:35:51;2.97;;;1.00;;
36671;SDS011;22663;47.412;9.742;2022-09-21T07:38:17;2.00;;;1.13;;
36671;SDS011;22663;47.412;9.742;2022-09-21T07:40:43;1.80;;;1.08;;
36671;SDS011;22663;47.412;9.742;2022-09-21T07:43:10;3.88;;;1.13;;
36671;SDS011;22663;47.412;9.742;2022-09-21T07:45:36;2.22;;;1.23;;
36671;SDS011;22663;47.412;9.742;2022-09-21T07:48:06;2.15;;;1.10;;
36671;SDS011;22663;47.412;9.742;2022-09-21T07:50:35;2.70;;;1.20;;
36671;SDS011;22663;47.412;9.742;2022-09-21T07:53:01;2.08;;;1.40;;
36671;SDS011;22663;47.412;9.742;2022-09-21T07:55:27;4.90;;;1.33;;
36671;SDS011;22663;47.412;9.742;2022-09-21T07:57:54;3.30;;;1.50;;
36671;SDS011;22663;47.412;9.742;2022-09-21T08:00:38;2.53;;;1.48;;
36671;SDS011;22663;47.412;9.742;2022-09-21T08:03:05;2.17;;;1.30;;
36671;SDS011;22663;47.412;9.742;2022-09-21T08:05:31;2.22;;;1.10;;
36671;SDS011;22663;47.412;9.742;2022-09-21T08:07:57;1.95;;;1.40;;
36671;SDS011;22663;47.412;9.742;2022-09-21T08:10:24;3.47;;;1.58;;
36671;SDS011;22663;47.412;9.742;2022-09-21T08:12:52;2.67;;;1.35;;
36671;SDS011;22663;47.412;9.742;2022-09-21T08:15:18;3.17;;;1.30;;
36671;SDS011;22663;47.412;9.742;2022-09-21T08:17:44;2.90;;;1.60;;
36671;SDS011;22663;47.412;9.742;2022-09-21T08:20:10;2.67;;;1.55;;
36671;SDS011;22663;47.412;9.742;2022-09-21T08:22:38;2.95;;;1.38;;
36671;SDS011;22663;47.412;9.742;2022-09-21T08:25:04;1.58;;;1.33;;
36671;SDS011;22663;47.412;9.742;2022-09-21T08:27:30;3.13;;;1.20;;
36671;SDS011;22663;47.412;9.742;2022-09-21T08:29:56;2.85;;;1.20;;
36671;SDS011;22663;47.412;9.742;2022-09-21T08:32:23;1.92;;;1.23;;
36671;SDS011;22663;47.412;9.742;2022-09-21T08:34:49;2.88;;;1.27;;
36671;SDS011;22663;47.412;9.742;2022-09-21T08:37:15;2.47;;;1.05;;
36671;SDS011;22663;47.412;9.742;2022-09-21T08:39:43;2.80;;;1.33;;
36671;SDS011;22663;47.412;9.742;2022-09-21T08:45:03;3.95;;;1.40;;
36671;SDS011;22663;47.412;9.742;2022-09-21T08:47:37;3.30;;;1.50;;
36671;SDS011;22663;47.412;9.742;2022-09-21T08:50:04;2.25;;;1.30;;
36671;SDS011;22663;47.412;9.742;2022-09-21T08:52:30;2.20;;;1.30;;
36671;SDS011;22663;47.412;9.742;2022-09-21T08:55:00;1.75;;;1.40;;
36671;SDS011;22663;47.412;9.742;2022-09-21T08:57:31;2.38;;;1.30;;
36671;SDS011;22663;47.412;9.742;2022-09-21T09:00:00;1.50;;;1.08;;
36671;SDS011;22663;47.412;9.742;2022-09-21T09:05:21;2.40;;;1.20;;
36671;SDS011;22663;47.412;9.742;2022-09-21T09:15:37;1.75;;;1.17;;
36671;SDS011;22663;47.412;9.742;2022-09-21T09:20:56;3.13;;;1.05;;
36671;SDS011;22663;47.412;9.742;2022-09-21T09:23:28;2.53;;;1.20;;
36671;SDS011;22663;47.412;9.742;2022-09-21T09:25:58;1.38;;;1.13;;
36671;SDS011;22663;47.412;9.742;2022-09-21T09:33:55;1.77;;;0.98;;
36671;SDS011;22663;47.412;9.742;2022-09-21T09:36:26;1.65;;;1.00;;
36671;SDS011;22663;47.412;9.742;2022-09-21T09:43:51;2.17;;;1.17;;
36671;SDS011;22663;47.412;9.742;2022-09-21T09:51:27;1.67;;;0.90;;
36671;SDS011;22663;47.412;9.742;2022-09-21T09:53:53;2.42;;;1.08;;
36671;SDS011;22663;47.412;9.742;2022-09-21T09:56:21;2.00;;;0.98;;
36671;SDS011;22663;47.412;9.742;2022-09-21T09:59:00;1.25;;;0.90;;
36671;SDS011;22663;47.412;9.742;2022-09-21T10:01:41;2.90;;;1.10;;
36671;SDS011;22663;47.412;9.742;2022-09-21T10:04:11;2.53;;;1.13;;
36671;SDS011;22663;47.412;9.742;2022-09-21T10:06:38;1.20;;;1.02;;
36671;SDS011;22663;47.412;9.742;2022-09-21T10:11:49;2.08;;;1.08;;
36671;SDS011;22663;47.412;9.742;2022-09-21T10:14:26;2.40;;;1.10;;
36671;SDS011;22663;47.412;9.742;2022-09-21T10:16:53;1.38;;;0.90;;
36671;SDS011;22663;47.412;9.742;2022-09-21T10:19:24;1.40;;;0.90;;
36671;SDS011;22663;47.412;9.742;2022-09-21T10:21:57;1.52;;;1.20;;
36671;SDS011;22663;47.412;9.742;2022-09-21T10:27:01;1.83;;;1.10;;
36671;SDS011;22663;47.412;9.742;2022-09-21T10:29:29;2.00;;;1.00;;
36671;SDS011;22663;47.412;9.742;2022-09-21T10:34:22;1.95;;;1.05;;
36671;SDS011;22663;47.412;9.742;2022-09-21T10:36:50;2.50;;;0.90;;
36671;SDS011;22663;47.412;9.742;2022-09-21T10:42:19;2.10;;;0.90;;
36671;SDS011;22663;47.412;9.742;2022-09-21T10:44:39;2.75;;;0.98;;
36671;SDS011;22663;47.412;9.742;2022-09-21T10:47:18;2.83;;;1.20;;
36671;SDS011;22663;47.412;9.742;2022-09-21T10:49:47;3.05;;;1.23;;
36671;SDS011;22663;47.412;9.742;2022-09-21T10:52:14;1.67;;;1.00;;
36671;SDS011;22663;47.412;9.742;2022-09-21T10:54:40;2.22;;;1.00;;
36671;SDS011;22663;47.412;9.742;2022-09-21T10:57:08;2.80;;;1.20;;
36671;SDS011;22663;47.412;9.742;2022-09-21T10:59:35;4.65;;;1.40;;
36671;SDS011;22663;47.412;9.742;2022-09-21T11:02:07;3.70;;;1.48;;
36671;SDS011;22663;47.412;9.742;2022-09-21T11:04:48;1.83;;;0.93;;
36671;SDS011;22663;47.412;9.742;2022-09-21T11:09:57;2.58;;;1.08;;
36671;SDS011;22663;47.412;9.742;2022-09-21T11:12:32;3.05;;;1.00;;
36671;SDS011;22663;47.412;9.742;2022-09-21T11:17:42;1.95;;;0.98;;
36671;SDS011;22663;47.412;9.742;2022-09-21T11:23:23;3.95;;;1.00;;
36671;SDS011;22663;47.412;9.742;2022-09-21T11:25:33;1.38;;;1.00;;
36671;SDS011;22663;47.412;9.742;2022-09-21T11:30:30;2.45;;;0.68;;
36671;SDS011;22663;47.412;9.742;2022-09-21T11:51:14;1.95;;;0.80;;
36671;SDS011;22663;47.412;9.742;2022-09-21T12:04:26;2.15;;;0.80;;
36671;SDS011;22663;47.412;9.742;2022-09-21T12:09:40;1.27;;;0.60;;
36671;SDS011;22663;47.412;9.742;2022-09-21T12:22:27;2.28;;;0.70;;
36671;SDS011;22663;47.412;9.742;2022-09-21T12:25:13;0.93;;;0.40;;
36671;SDS011;22663;47.412;9.742;2022-09-21T12:30:20;1.48;;;0.63;;
36671;SDS011;22663;47.412;9.742;2022-09-21T12:32:53;1.42;;;0.70;;
36671;SDS011;22663;47.412;9.742;2022-09-21T12:36:04;1.00;;;0.60;;
36671;SDS011;22663;47.412;9.742;2022-09-21T12:38:19;1.27;;;0.50;;
36671;SDS011;22663;47.412;9.742;2022-09-21T12:40:48;0.68;;;0.50;;
36671;SDS011;22663;47.412;9.742;2022-09-21T12:43:21;1.70;;;0.50;;
36671;SDS011;22663;47.412;9.742;2022-09-21T12:45:52;2.47;;;0.80;;
36671;SDS011;22663;47.412;9.742;2022-09-21T12:48:28;0.90;;;0.68;;
36671;SDS011;22663;47.412;9.742;2022-09-21T12:53:26;1.35;;;0.70;;
36671;SDS011;22663;47.412;9.742;2022-09-21T12:56:02;1.05;;;0.50;;
36671;SDS011;22663;47.412;9.742;2022-09-21T12:58:38;0.82;;;0.47;;
36671;SDS011;22663;47.412;9.742;2022-09-21T13:01:13;1.13;;;0.50;;
36671;SDS011;22663;47.412;9.742;2022-09-21T13:09:21;1.02;;;0.50;;
36671;SDS011;22663;47.412;9.742;2022-09-21T13:12:10;1.08;;;0.60;;
36671;SDS011;22663;47.412;9.742;2022-09-21T13:14:35;1.65;;;0.63;;
36671;SDS011;22663;47.412;9.742;2022-09-21T13:17:06;0.77;;;0.60;;
36671;SDS011;22663;47.412;9.742;2022-09-21T13:19:42;1.25;;;0.60;;
36671;SDS011;22663;47.412;9.742;2022-09-21T13:24:37;0.95;;;0.60;;
36671;SDS011;22663;47.412;9.742;2022-09-21T13:27:04;0.77;;;0.57;;
36671;SDS011;22663;47.412;9.742;2022-09-21T13:29:34;0.60;;;0.55;;
36671;SDS011;22663;47.412;9.742;2022-09-21T13:34:36;1.75;;;0.57;;
36671;SDS011;22663;47.412;9.742;2022-09-21T13:44:54;2.42;;;0.50;;
36671;SDS011;22663;47.412;9.742;2022-09-21T13:47:32;1.67;;;0.50;;
36671;SDS011;22663;47.412;9.742;2022-09-21T13:50:02;2.78;;;1.23;;
36671;SDS011;22663;47.412;9.742;2022-09-21T13:52:45;1.13;;;0.70;;
36671;SDS011;22663;47.412;9.742;2022-09-21T13:55:34;0.57;;;0.50;;
36671;SDS011;22663;47.412;9.742;2022-09-21T13:58:04;1.77;;;0.60;;
36671;SDS011;22663;47.412;9.742;2022-09-21T14:00:32;0.63;;;0.43;;
36671;SDS011;22663;47.412;9.742;2022-09-21T14:03:01;1.33;;;1.10;;
36671;SDS011;22663;47.412;9.742;2022-09-21T14:08:05;1.23;;;0.50;;
36671;SDS011;22663;47.412;9.742;2022-09-21T14:10:33;0.88;;;0.60;;
36671;SDS011;22663;47.412;9.742;2022-09-21T14:13:00;3.15;;;0.85;;
36671;SDS011;22663;47.412;9.742;2022-09-21T14:15:31;0.68;;;0.40;;
36671;SDS011;22663;47.412;9.742;2022-09-21T14:18:08;1.13;;;0.70;;
36671;SDS011;22663;47.412;9.742;2022-09-21T14:23:27;0.70;;;0.50;;
36671;SDS011;22663;47.412;9.742;2022-09-21T14:25:54;1.45;;;0.47;;
36671;SDS011;22663;47.412;9.742;2022-09-21T14:31:00;1.80;;;0.77;;
36671;SDS011;22663;47.412;9.742;2022-09-21T14:33:29;1.60;;;0.70;;
36671;SDS011;22663;47.412;9.742;2022-09-21T14:35:57;1.58;;;0.45;;
36671;SDS011;22663;47.412;9.742;2022-09-21T14:38:26;0.80;;;0.60;;
36671;SDS011;22663;47.412;9.742;2022-09-21T14:41:03;1.08;;;0.63;;
36671;SDS011;22663;47.412;9.742;2022-09-21T14:43:32;2.00;;;0.47;;
36671;SDS011;22663;47.412;9.742;2022-09-21T14:56:37;1.33;;;0.60;;
36671;SDS011;22663;47.412;9.742;2022-09-21T15:06:54;1.15;;;0.75;;
36671;SDS011;22663;47.412;9.742;2022-09-21T15:13:01;3.00;;;0.70;;
36671;SDS011;22663;47.412;9.742;2022-09-21T15:18:19;0.98;;;0.50;;
36671;SDS011;22663;47.412;9.742;2022-09-21T15:20:56;1.60;;;0.50;;
36671;SDS011;22663;47.412;9.742;2022-09-21T15:23:26;2.08;;;0.60;;
36671;SDS011;22663;47.412;9.742;2022-09-21T15:26:00;2.10;;;0.50;;
36671;SDS011;22663;47.412;9.742;2022-09-21T15:28:34;0.38;;;0.25;;
36671;SDS011;22663;47.412;9.742;2022-09-21T15:31:00;1.08;;;0.63;;
36671;SDS011;22663;47.412;9.742;2022-09-21T15:33:28;2.75;;;0.88;;
36671;SDS011;22663;47.412;9.742;2022-09-21T15:35:58;1.05;;;0.60;;
36671;SDS011;22663;47.412;9.742;2022-09-21T15:38:33;2.75;;;0.70;;
36671;SDS011;22663;47.412;9.742;2022-09-21T15:41:03;3.75;;;0.77;;
36671;SDS011;22663;47.412;9.742;2022-09-21T15:43:30;1.48;;;0.40;;
36671;SDS011;22663;47.412;9.742;2022-09-21T15:46:01;2.35;;;0.50;;
36671;SDS011;22663;47.412;9.742;2022-09-21T15:48:29;1.52;;;0.90;;
36671;SDS011;22663;47.412;9.742;2022-09-21T15:51:19;0.82;;;0.50;;
36671;SDS011;22663;47.412;9.742;2022-09-21T15:53:53;1.17;;;0.60;;
36671;SDS011;22663;47.412;9.742;2022-09-21T15:56:21;0.90;;;0.40;;
36671;SDS011;22663;47.412;9.742;2022-09-21T15:58:49;1.08;;;0.40;;
36671;SDS011;22663;47.412;9.742;2022-09-21T16:01:20;0.75;;;0.50;;
36671;SDS011;22663;47.412;9.742;2022-09-21T16:03:47;1.75;;;0.63;;
36671;SDS011;22663;47.412;9.742;2022-09-21T16:14:12;1.33;;;0.55;;
36671;SDS011;22663;47.412;9.742;2022-09-21T16:20:13;1.00;;;0.43;;
36671;SDS011;22663;47.412;9.742;2022-09-21T16:22:29;1.50;;;1.00;;
36671;SDS011;22663;47.412;9.742;2022-09-21T16:24:56;3.80;;;0.77;;
36671;SDS011;22663;47.412;9.742;2022-09-21T16:27:24;1.90;;;0.40;;
36671;SDS011;22663;47.412;9.742;2022-09-21T16:29:51;1.25;;;0.50;;
36671;SDS011;22663;47.412;9.742;2022-09-21T16:34:45;0.85;;;0.40;;
36671;SDS011;22663;47.412;9.742;2022-09-21T16:39:56;1.77;;;0.50;;
36671;SDS011;22663;47.412;9.742;2022-09-21T16:42:23;0.52;;;0.40;;
36671;SDS011;22663;47.412;9.742;2022-09-21T16:44:57;0.47;;;0.40;;
36671;SDS011;22663;47.412;9.742;2022-09-21T16:47:25;1.42;;;0.40;;
36671;SDS011;22663;47.412;9.742;2022-09-21T16:49:55;1.75;;;0.55;;
36671;SDS011;22663;47.412;9.742;2022-09-21T16:52:24;1.10;;;0.75;;
36671;SDS011;22663;47.412;9.742;2022-09-21T16:54:52;1.17;;;0.68;;
36671;SDS011;22663;47.412;9.742;2022-09-21T16:57:20;0.40;;;0.30;;
36671;SDS011;22663;47.412;9.742;2022-09-21T16:59:47;0.70;;;0.50;;
36671;SDS011;22663;47.412;9.742;2022-09-21T17:02:14;1.92;;;0.65;;
36671;SDS011;22663;47.412;9.742;2022-09-21T17:04:41;1.85;;;0.85;;
36671;SDS011;22663;47.412;9.742;2022-09-21T17:07:13;0.50;;;0.40;;
36671;SDS011;22663;47.412;9.742;2022-09-21T17:09:41;1.13;;;0.43;;
36671;SDS011;22663;47.412;9.742;2022-09-21T17:12:09;0.47;;;0.30;;
36671;SDS011;22663;47.412;9.742;2022-09-21T17:14:36;2.25;;;0.57;;
36671;SDS011;22663;47.412;9.742;2022-09-21T17:19:30;1.20;;;0.50;;
36671;SDS011;22663;47.412;9.742;2022-09-21T17:21:56;1.35;;;0.60;;
36671;SDS011;22663;47.412;9.742;2022-09-21T17:24:23;1.90;;;0.73;;
36671;SDS011;22663;47.412;9.742;2022-09-21T17:26:53;1.23;;;0.70;;
36671;SDS011;22663;47.412;9.742;2022-09-21T17:29:23;3.60;;;1.60;;
36671;SDS011;22663;47.412;9.742;2022-09-21T17:31:51;1.80;;;1.00;;
36671;SDS011;22663;47.412;9.742;2022-09-21T17:34:19;1.73;;;0.98;;
36671;SDS011;22663;47.412;9.742;2022-09-21T17:36:46;1.02;;;0.85;;
36671;SDS011;22663;47.412;9.742;2022-09-21T17:39:12;1.88;;;1.00;;
36671;SDS011;22663;47.412;9.742;2022-09-21T17:44:18;0.88;;;0.73;;
36671;SDS011;22663;47.412;9.742;2022-09-21T17:49:19;1.95;;;1.00;;
36671;SDS011;22663;47.412;9.742;2022-09-21T17:51:46;3.72;;;1.63;;
36671;SDS011;22663;47.412;9.742;2022-09-21T17:54:31;1.60;;;1.20;;
36671;SDS011;22663;47.412;9.742;2022-09-21T17:59:28;1.98;;;1.00;;
36671;SDS011;22663;47.412;9.742;2022-09-21T18:01:56;3.42;;;1.50;;
36671;SDS011;22663;47.412;9.742;2022-09-21T18:04:24;3.38;;;1.52;;
36671;SDS011;22663;47.412;9.742;2022-09-21T18:06:52;3.70;;;1.88;;
36671;SDS011;22663;47.412;9.742;2022-09-21T18:09:18;2.60;;;1.30;;
36671;SDS011;22663;47.412;9.742;2022-09-21T18:20:05;1.45;;;1.08;;
36671;SDS011;22663;47.412;9.742;2022-09-21T18:25:14;2.05;;;1.13;;
36671;SDS011;22663;47.412;9.742;2022-09-21T18:27:41;1.40;;;0.93;;
36671;SDS011;22663;47.412;9.742;2022-09-21T18:30:10;1.20;;;0.88;;
36671;SDS011;22663;47.412;9.742;2022-09-21T18:35:31;2.17;;;1.10;;
36671;SDS011;22663;47.412;9.742;2022-09-21T18:38:21;1.65;;;1.13;;
36671;SDS011;22663;47.412;9.742;2022-09-21T18:45:50;1.45;;;0.90;;
36671;SDS011;22663;47.412;9.742;2022-09-21T18:48:20;1.55;;;0.90;;
36671;SDS011;22663;47.412;9.742;2022-09-21T18:55:57;1.00;;;0.80;;
36671;SDS011;22663;47.412;9.742;2022-09-21T18:58:25;1.98;;;0.85;;
36671;SDS011;22663;47.412;9.742;2022-09-21T19:00:51;2.17;;;0.85;;